createdAt,value
2022-08-09T00:00:31.947Z,14.99
2022-08-09T00:01:42.882Z,14.98
2022-08-09T00:02:33.241Z,14.96
2022-08-09T00:04:06.003Z,14.95
2022-08-09T00:04:34.669Z,14.95
2022-08-09T00:06:17.970Z,14.92
2022-08-09T00:06:32.885Z,14.92
2022-08-09T00:07:31.849Z,14.91
2022-08-09T00:08:33.193Z,14.89
2022-08-09T00:09:31.815Z,14.86
2022-08-09T00:10:31.814Z,14.84
2022-08-09T00:12:02.739Z,14.83
2022-08-09T00:12:34.703Z,14.83
2022-08-09T00:13:31.937Z,14.81
2022-08-09T00:14:36.313Z,14.80
2022-08-09T00:15:57.522Z,14.78
2022-08-09T00:16:36.816Z,14.78
2022-08-09T00:18:05.171Z,14.78
2022-08-09T00:18:34.960Z,14.73
2022-08-09T00:19:31.695Z,14.70
2022-08-09T00:20:31.694Z,14.70
2022-08-09T00:21:31.673Z,14.65
2022-08-09T00:22:35.038Z,14.64
2022-08-09T00:23:54.930Z,14.61
2022-08-09T00:24:32.632Z,14.64
2022-08-09T00:25:32.872Z,14.60
2022-08-09T00:26:33.040Z,14.58
2022-08-09T00:27:31.584Z,14.58
2022-08-09T00:28:31.602Z,14.58
2022-08-09T00:29:39.117Z,14.55
2022-08-09T00:30:32.551Z,14.52
2022-08-09T00:31:58.527Z,14.55
2022-08-09T00:32:32.532Z,14.50
2022-08-09T00:33:49.180Z,14.46
2022-08-09T00:34:33.448Z,14.42
2022-08-09T00:35:42.790Z,14.42
2022-08-09T00:36:32.473Z,14.37
2022-08-09T00:37:32.498Z,14.36
2022-08-09T00:38:31.447Z,14.35
2022-08-09T00:40:13.159Z,14.35
2022-08-09T00:40:32.460Z,14.35
2022-08-09T00:44:09.986Z,14.32
2022-08-09T00:44:14.738Z,14.32
2022-08-09T00:44:15.308Z,14.32
2022-08-09T00:44:32.517Z,14.29
2022-08-09T00:45:34.838Z,14.29
2022-08-09T00:46:55.864Z,14.27
2022-08-09T00:47:35.921Z,14.27
2022-08-09T00:48:32.318Z,14.24
2022-08-09T00:49:31.351Z,14.21
2022-08-09T00:50:31.289Z,14.17
2022-08-09T00:51:33.918Z,14.15
2022-08-09T00:52:32.656Z,14.14
2022-08-09T00:53:31.247Z,14.09
2022-08-09T00:54:35.888Z,14.06
2022-08-09T00:56:03.672Z,14.02
2022-08-09T00:56:32.209Z,14.00
2022-08-09T00:57:34.958Z,14.02
2022-08-09T00:58:31.513Z,13.99
2022-08-09T00:59:41.677Z,13.97
2022-08-09T01:00:32.166Z,13.92
2022-08-09T01:01:32.238Z,13.91
2022-08-09T01:02:31.332Z,13.89
2022-08-09T01:03:31.116Z,13.91
2022-08-09T01:04:32.117Z,13.91
2022-08-09T01:05:51.894Z,13.91
2022-08-09T01:06:53.396Z,13.89
2022-08-09T01:07:37.662Z,13.88
2022-08-09T01:08:32.057Z,13.87
2022-08-09T01:09:36.605Z,13.87
2022-08-09T01:10:32.058Z,13.84
2022-08-09T01:11:31.018Z,13.82
2022-08-09T01:12:31.237Z,13.81
2022-08-09T01:13:41.804Z,13.79
2022-08-09T01:14:31.994Z,13.77
2022-08-09T01:15:31.317Z,13.79
2022-08-09T01:16:31.946Z,13.81
2022-08-09T01:17:34.124Z,13.82
2022-08-09T01:18:31.482Z,13.82
2022-08-09T01:19:39.832Z,13.82
2022-08-09T01:20:31.904Z,13.82
2022-08-09T01:21:44.567Z,13.79
2022-08-09T01:22:31.995Z,13.78
2022-08-09T01:24:01.748Z,13.77
2022-08-09T01:24:31.866Z,13.71
2022-08-09T01:25:30.825Z,13.71
2022-08-09T01:26:30.816Z,13.70
2022-08-09T01:27:30.805Z,13.69
2022-08-09T01:28:30.792Z,13.64
2022-08-09T01:29:55.337Z,13.63
2022-08-09T01:30:35.442Z,13.62
2022-08-09T01:32:31.481Z,13.60
2022-08-09T01:32:46.081Z,13.59
2022-08-09T01:33:31.725Z,13.57
2022-08-09T01:34:30.724Z,13.57
2022-08-09T01:35:38.457Z,13.57
2022-08-09T01:36:31.684Z,13.54
2022-08-09T01:38:05.620Z,13.55
2022-08-09T01:38:31.654Z,13.54
2022-08-09T01:39:30.691Z,13.55
2022-08-09T01:40:31.641Z,13.52
2022-08-09T01:41:30.623Z,13.52
2022-08-09T01:42:30.845Z,13.52
2022-08-09T01:43:30.594Z,13.51
2022-08-09T01:44:30.686Z,13.49
2022-08-09T01:45:30.578Z,13.51
2022-08-09T01:46:30.553Z,13.48
2022-08-09T01:47:31.398Z,13.46
2022-08-09T01:48:31.581Z,13.45
2022-08-09T01:49:32.061Z,13.41
2022-08-09T01:50:37.228Z,13.39
2022-08-09T01:51:32.599Z,13.32
2022-08-09T01:52:30.676Z,13.28
2022-08-09T01:53:41.375Z,13.28
2022-08-09T01:54:32.903Z,13.26
2022-08-09T01:55:30.434Z,13.25
2022-08-09T01:56:30.424Z,13.25
2022-08-09T01:57:30.420Z,13.26
2022-08-09T01:58:31.393Z,13.26
2022-08-09T01:59:32.472Z,13.23
2022-08-09T02:00:35.409Z,13.23
2022-08-09T02:01:58.368Z,13.22
2022-08-09T02:02:32.553Z,13.22
2022-08-09T02:03:30.332Z,13.19
2022-08-09T02:04:30.323Z,13.20
2022-08-09T02:05:37.880Z,13.12
2022-08-09T02:06:32.272Z,13.11
2022-08-09T02:08:35.548Z,13.08
2022-08-09T02:08:39.896Z,13.08
2022-08-09T02:09:41.837Z,13.07
2022-08-09T02:10:31.269Z,13.05
2022-08-09T02:11:42.660Z,13.08
2022-08-09T02:12:31.202Z,13.12
2022-08-09T02:13:37.733Z,13.10
2022-08-09T02:14:31.194Z,13.12
2022-08-09T02:15:48.990Z,13.14
2022-08-09T02:16:35.438Z,13.15
2022-08-09T02:18:01.673Z,13.15
2022-08-09T02:18:31.159Z,13.14
2022-08-09T02:19:38.577Z,13.15
2022-08-09T02:20:32.760Z,13.15
2022-08-09T02:21:30.090Z,13.11
2022-08-09T02:22:34.935Z,13.11
2022-08-09T02:23:31.951Z,13.04
2022-08-09T02:24:31.059Z,13.04
2022-08-09T02:25:30.032Z,13.03
2022-08-09T02:26:30.018Z,13.03
2022-08-09T02:27:58.158Z,13.03
2022-08-09T02:28:30.997Z,13.01
2022-08-09T02:29:31.281Z,13.00
2022-08-09T02:30:29.961Z,12.97
2022-08-09T02:31:29.960Z,13.00
2022-08-09T02:32:30.860Z,12.93
2022-08-09T02:33:37.760Z,12.92
2022-08-09T02:34:40.724Z,12.92
2022-08-09T02:36:01.653Z,12.92
2022-08-09T02:36:30.879Z,12.90
2022-08-09T02:37:31.891Z,12.92
2022-08-09T02:38:30.861Z,12.89
2022-08-09T02:39:34.149Z,12.89
2022-08-09T02:40:30.845Z,12.90
2022-08-09T02:41:29.820Z,12.89
2022-08-09T02:42:29.893Z,12.87
2022-08-09T02:43:29.791Z,12.87
2022-08-09T02:44:30.794Z,12.85
2022-08-09T02:45:29.760Z,12.83
2022-08-09T02:46:29.749Z,12.83
2022-08-09T02:47:33.914Z,12.79
2022-08-09T02:48:31.597Z,12.70
2022-08-09T02:49:40.974Z,12.68
2022-08-09T02:50:30.697Z,12.67
2022-08-09T02:51:32.984Z,12.68
2022-08-09T02:52:30.975Z,12.65
2022-08-09T02:53:29.659Z,12.65
2022-08-09T02:54:29.657Z,12.64
2022-08-09T02:55:57.464Z,12.65
2022-08-09T02:56:30.618Z,12.70
2022-08-09T02:57:29.618Z,12.70
2022-08-09T02:58:32.614Z,12.67
2022-08-09T02:59:36.494Z,12.70
2022-08-09T03:00:30.607Z,12.71
2022-08-09T03:01:58.575Z,12.74
2022-08-09T03:02:30.890Z,12.75
2022-08-09T03:04:13.029Z,12.77
2022-08-09T03:04:30.548Z,12.74
2022-08-09T03:05:29.539Z,12.74
2022-08-09T03:06:29.497Z,12.72
2022-08-09T03:07:29.487Z,12.70
2022-08-09T03:08:29.457Z,12.70
2022-08-09T03:09:33.594Z,12.68
2022-08-09T03:10:29.435Z,12.64
2022-08-09T03:12:09.736Z,12.65
2022-08-09T03:12:30.786Z,12.59
2022-08-09T03:13:43.783Z,12.57
2022-08-09T03:14:30.387Z,12.56
2022-08-09T03:16:04.744Z,12.53
2022-08-09T03:16:30.357Z,12.46
2022-08-09T03:17:29.346Z,12.45
2022-08-09T03:18:31.363Z,12.45
2022-08-09T03:19:59.589Z,12.39
2022-08-09T03:20:30.297Z,12.39
2022-08-09T03:21:29.296Z,12.38
2022-08-09T03:22:30.856Z,12.39
2022-08-09T03:23:29.265Z,12.45
2022-08-09T03:24:42.057Z,12.42
2022-08-09T03:25:58.664Z,12.42
2022-08-09T03:26:32.118Z,12.42
2022-08-09T03:27:29.206Z,12.41
2022-08-09T03:28:30.202Z,12.38
2022-08-09T03:29:29.185Z,12.37
2022-08-09T03:30:34.000Z,12.35
2022-08-09T03:31:29.155Z,12.37
2022-08-09T03:32:29.203Z,12.35
2022-08-09T03:33:53.538Z,12.45
2022-08-09T03:34:30.115Z,12.45
2022-08-09T03:36:13.715Z,12.42
2022-08-09T03:36:30.093Z,12.45
2022-08-09T03:37:54.870Z,12.45
2022-08-09T03:38:30.517Z,12.42
2022-08-09T03:39:37.962Z,12.41
2022-08-09T03:40:31.018Z,12.41
2022-08-09T03:41:29.829Z,12.45
2022-08-09T03:42:30.773Z,12.45
2022-08-09T03:43:31.615Z,12.42
2022-08-09T03:44:32.096Z,12.41
2022-08-09T03:46:03.161Z,12.39
2022-08-09T03:46:30.227Z,12.37
2022-08-09T03:47:28.945Z,12.34
2022-08-09T03:48:30.675Z,12.31
2022-08-09T03:49:32.808Z,12.29
2022-08-09T03:50:32.050Z,12.24
2022-08-09T03:51:43.986Z,12.27
2022-08-09T03:52:30.144Z,12.21
2022-08-09T03:53:32.215Z,12.20
2022-08-09T03:54:31.528Z,12.19
2022-08-09T03:55:30.035Z,12.17
2022-08-09T03:56:29.833Z,12.17
2022-08-09T03:57:28.813Z,12.21
2022-08-09T03:58:28.793Z,12.19
2022-08-09T03:59:43.086Z,12.17
2022-08-09T04:00:29.828Z,12.14
2022-08-09T04:01:28.773Z,12.12
2022-08-09T04:02:28.935Z,12.12
2022-08-09T04:03:45.930Z,12.13
2022-08-09T04:04:32.600Z,12.10
2022-08-09T04:05:29.723Z,12.10
2022-08-09T04:06:28.694Z,12.12
2022-08-09T04:07:47.010Z,12.14
2022-08-09T04:08:29.797Z,12.14
2022-08-09T04:09:47.519Z,12.16
2022-08-09T04:10:30.527Z,12.16
2022-08-09T04:11:28.633Z,12.17
2022-08-09T04:12:30.577Z,12.20
2022-08-09T04:14:37.280Z,12.21
2022-08-09T04:14:53.789Z,12.20
2022-08-09T04:15:52.000Z,12.23
2022-08-09T04:16:29.562Z,12.23
2022-08-09T04:17:29.409Z,12.23
2022-08-09T04:18:28.543Z,12.24
2022-08-09T04:19:42.681Z,12.24
2022-08-09T04:20:29.513Z,12.29
2022-08-09T04:21:28.510Z,12.29
2022-08-09T04:22:28.483Z,12.31
2022-08-09T04:23:28.471Z,12.35
2022-08-09T04:24:28.471Z,12.35
2022-08-09T04:25:28.450Z,12.38
2022-08-09T04:26:37.876Z,12.39
2022-08-09T04:27:29.430Z,12.42
2022-08-09T04:28:30.786Z,12.42
2022-08-09T04:29:30.032Z,12.45
2022-08-09T04:30:28.818Z,12.45
2022-08-09T04:31:37.652Z,12.49
2022-08-09T04:32:37.173Z,12.54
2022-08-09T04:33:29.349Z,12.56
2022-08-09T04:34:30.650Z,12.57
2022-08-09T04:35:29.392Z,12.57
2022-08-09T04:36:28.308Z,12.60
2022-08-09T04:37:45.156Z,12.65
2022-08-09T04:38:29.269Z,12.71
2022-08-09T04:39:31.234Z,12.71
2022-08-09T04:40:35.998Z,12.74
2022-08-09T04:41:32.164Z,12.77
2022-08-09T04:42:28.219Z,12.83
2022-08-09T04:43:28.208Z,12.85
2022-08-09T04:44:29.199Z,12.89
2022-08-09T04:45:30.818Z,12.89
2022-08-09T04:46:38.286Z,12.93
2022-08-09T04:47:33.196Z,12.96
2022-08-09T04:48:33.353Z,13.00
2022-08-09T04:49:47.726Z,13.01
2022-08-09T04:50:33.614Z,13.03
2022-08-09T04:51:29.099Z,13.07
2022-08-09T04:52:28.088Z,13.07
2022-08-09T04:53:28.080Z,13.12
2022-08-09T04:54:28.067Z,13.12
2022-08-09T04:55:28.071Z,13.15
2022-08-09T04:56:29.035Z,13.19
2022-08-09T04:57:59.028Z,13.23
2022-08-09T04:58:29.893Z,13.25
2022-08-09T04:59:30.052Z,13.30
2022-08-09T05:00:31.821Z,13.41
2022-08-09T05:01:28.968Z,13.41
2022-08-09T05:02:27.979Z,13.45
2022-08-09T05:03:40.895Z,13.48
2022-08-09T05:04:31.204Z,13.51
2022-08-09T05:05:32.002Z,13.57
2022-08-09T05:06:32.638Z,13.63
2022-08-09T05:07:31.697Z,13.73
2022-08-09T05:08:28.244Z,13.82
2022-08-09T05:09:32.607Z,13.91
2022-08-09T05:10:28.877Z,14.00
2022-08-09T05:11:27.847Z,14.18
2022-08-09T05:12:27.855Z,14.18
2022-08-09T05:13:27.819Z,14.28
2022-08-09T05:14:27.798Z,14.45
2022-08-09T05:15:38.478Z,14.45
2022-08-09T05:16:32.044Z,14.61
2022-08-09T05:18:38.209Z,14.75
2022-08-09T05:18:39.319Z,14.69
2022-08-09T05:19:31.706Z,14.75
2022-08-09T05:20:29.848Z,14.81
2022-08-09T05:21:29.844Z,14.95
2022-08-09T05:22:33.562Z,14.95
2022-08-09T05:23:53.935Z,14.99
2022-08-09T05:24:28.677Z,15.06
2022-08-09T05:25:28.241Z,15.10
2022-08-09T05:26:36.577Z,15.16
2022-08-09T05:27:28.638Z,15.23
2022-08-09T05:28:27.616Z,15.31
2022-08-09T05:29:31.496Z,15.46
2022-08-09T05:30:29.919Z,15.51
2022-08-09T05:31:44.056Z,15.62
2022-08-09T05:32:30.050Z,15.62
2022-08-09T05:33:33.191Z,15.69
2022-08-09T05:34:30.630Z,15.80
2022-08-09T05:35:27.565Z,15.89
2022-08-09T05:36:28.951Z,16.04
2022-08-09T05:37:27.505Z,16.11
2022-08-09T05:38:27.910Z,16.24
2022-08-09T05:39:28.911Z,16.24
2022-08-09T05:40:27.457Z,16.41
2022-08-09T05:41:27.454Z,16.39
2022-08-09T05:42:28.064Z,16.49
2022-08-09T05:43:29.113Z,16.56
2022-08-09T05:44:28.995Z,16.71
2022-08-09T05:45:53.058Z,16.83
2022-08-09T05:46:28.393Z,16.94
2022-08-09T05:47:30.452Z,16.98
2022-08-09T05:48:33.113Z,17.12
2022-08-09T05:50:23.401Z,17.18
2022-08-09T05:50:51.307Z,17.26
2022-08-09T05:51:43.196Z,17.33
2022-08-09T05:52:30.709Z,17.46
2022-08-09T05:53:32.487Z,17.54
2022-08-09T05:54:28.305Z,17.62
2022-08-09T05:55:27.265Z,17.70
2022-08-09T05:56:27.270Z,17.81
2022-08-09T05:57:51.057Z,17.89
2022-08-09T05:58:28.248Z,17.95
2022-08-09T05:59:27.226Z,17.95
2022-08-09T06:00:28.638Z,18.08
2022-08-09T06:01:27.186Z,18.08
2022-08-09T06:02:28.296Z,18.15
2022-08-09T06:03:44.135Z,18.23
2022-08-09T06:04:34.766Z,18.30
2022-08-09T06:05:50.549Z,18.37
2022-08-09T06:06:28.125Z,18.47
2022-08-09T06:07:28.066Z,18.57
2022-08-09T06:08:27.096Z,18.66
2022-08-09T06:09:54.188Z,18.75
2022-08-09T06:10:28.086Z,18.76
2022-08-09T06:11:40.894Z,18.80
2022-08-09T06:12:28.073Z,18.82
2022-08-09T06:13:28.381Z,18.91
2022-08-09T06:14:28.514Z,19.02
2022-08-09T06:15:27.016Z,19.00
2022-08-09T06:16:26.998Z,19.04
2022-08-09T06:17:26.977Z,19.06
2022-08-09T06:18:27.966Z,19.10
2022-08-09T06:19:27.663Z,19.11
2022-08-09T06:20:26.978Z,19.19
2022-08-09T06:21:26.925Z,19.19
2022-08-09T06:22:29.028Z,19.19
2022-08-09T06:23:58.750Z,19.28
2022-08-09T06:24:27.886Z,19.31
2022-08-09T06:25:26.886Z,19.36
2022-08-09T06:26:28.211Z,19.44
2022-08-09T06:27:43.097Z,19.51
2022-08-09T06:28:32.035Z,19.58
2022-08-09T06:29:27.150Z,19.66
2022-08-09T06:30:27.200Z,19.77
2022-08-09T06:31:31.565Z,19.88
2022-08-09T06:33:13.321Z,19.99
2022-08-09T06:33:40.194Z,20.05
2022-08-09T06:34:29.854Z,19.98
2022-08-09T06:35:56.282Z,20.05
2022-08-09T06:36:29.825Z,20.08
2022-08-09T06:37:28.987Z,20.10
2022-08-09T06:38:31.999Z,20.16
2022-08-09T06:39:48.374Z,20.24
2022-08-09T06:40:27.806Z,20.35
2022-08-09T06:42:08.143Z,20.42
2022-08-09T06:42:28.672Z,20.58
2022-08-09T06:43:26.708Z,20.72
2022-08-09T06:44:27.646Z,20.82
2022-08-09T06:46:05.163Z,20.92
2022-08-09T06:46:40.484Z,20.95
2022-08-09T06:47:39.530Z,21.03
2022-08-09T06:48:31.087Z,21.06
2022-08-09T06:49:29.390Z,21.13
2022-08-09T06:50:27.564Z,21.24
2022-08-09T06:51:26.546Z,21.28
2022-08-09T06:52:26.595Z,21.31
2022-08-09T06:53:26.511Z,21.28
2022-08-09T06:54:26.506Z,21.31
2022-08-09T06:55:26.499Z,21.34
2022-08-09T06:56:30.851Z,21.37
2022-08-09T07:00:49.544Z,21.74
2022-08-09T07:00:52.456Z,21.52
2022-08-09T07:00:56.190Z,21.67
2022-08-09T07:01:54.654Z,21.79
2022-08-09T07:02:38.387Z,21.86
2022-08-09T07:03:39.542Z,21.96
2022-08-09T07:04:38.357Z,22.06
2022-08-09T07:05:53.725Z,22.17
2022-08-09T07:06:38.309Z,22.28
2022-08-09T07:08:00.388Z,22.30
2022-08-09T07:08:39.664Z,22.28
2022-08-09T07:09:55.840Z,22.31
2022-08-09T07:10:38.289Z,22.33
2022-08-09T07:11:52.227Z,22.45
2022-08-09T07:12:40.830Z,22.52
2022-08-09T07:13:45.094Z,22.54
2022-08-09T07:14:38.215Z,22.47
2022-08-09T07:15:53.966Z,22.46
2022-08-09T07:16:42.478Z,22.35
2022-08-09T07:17:39.828Z,22.31
2022-08-09T07:18:38.719Z,22.24
2022-08-09T07:19:37.212Z,22.35
2022-08-09T07:20:39.696Z,22.49
2022-08-09T07:21:38.132Z,22.62
2022-08-09T07:22:43.790Z,22.76
2022-08-09T07:23:56.511Z,22.86
2022-08-09T07:24:40.102Z,22.98
2022-08-09T07:25:38.994Z,23.12
2022-08-09T07:26:38.056Z,23.12
2022-08-09T07:27:43.174Z,23.10
2022-08-09T07:28:38.026Z,23.01
2022-08-09T07:29:43.010Z,23.07
2022-08-09T07:30:38.044Z,23.05
2022-08-09T07:31:38.125Z,23.05
2022-08-09T07:32:37.252Z,23.13
2022-08-09T07:33:52.151Z,23.19
2022-08-09T07:34:37.941Z,23.22
2022-08-09T07:35:39.735Z,23.16
2022-08-09T07:36:37.912Z,23.15
2022-08-09T07:37:43.116Z,23.23
2022-08-09T07:38:37.903Z,23.27
2022-08-09T07:39:41.300Z,23.39
2022-08-09T07:41:00.885Z,23.42
2022-08-09T07:41:38.594Z,23.53
2022-08-09T07:42:36.851Z,23.65
2022-08-09T07:43:41.465Z,23.73
2022-08-09T07:44:53.108Z,23.75
2022-08-09T07:45:40.699Z,23.72
2022-08-09T07:46:36.866Z,23.70
2022-08-09T07:47:39.608Z,23.78
2022-08-09T07:48:39.265Z,23.84
2022-08-09T07:50:04.736Z,23.88
2022-08-09T07:50:37.963Z,24.02
2022-08-09T07:52:05.285Z,24.03
2022-08-09T07:52:37.712Z,24.09
2022-08-09T07:54:04.330Z,24.09
2022-08-09T07:54:37.740Z,24.12
2022-08-09T07:55:41.707Z,24.12
2022-08-09T07:56:39.027Z,24.06
2022-08-09T07:57:37.709Z,24.08
2022-08-09T07:58:37.631Z,24.12
2022-08-09T07:59:51.908Z,24.15
2022-08-09T08:00:37.687Z,24.13
2022-08-09T08:01:37.614Z,24.28
2022-08-09T08:02:37.221Z,24.39
2022-08-09T08:03:37.561Z,24.57
2022-08-09T08:04:36.656Z,24.65
2022-08-09T08:05:54.196Z,24.81
2022-08-09T08:06:37.572Z,24.85
2022-08-09T08:08:42.722Z,24.68
2022-08-09T08:09:01.829Z,24.69
2022-08-09T08:09:42.944Z,24.62
2022-08-09T08:10:37.492Z,24.53
2022-08-09T08:12:09.662Z,24.45
2022-08-09T08:12:37.613Z,24.42
2022-08-09T08:13:45.037Z,24.43
2022-08-09T08:14:37.425Z,24.46
2022-08-09T08:15:39.247Z,24.45
2022-08-09T08:16:36.386Z,24.52
2022-08-09T08:17:54.877Z,24.62
2022-08-09T08:18:37.441Z,24.73
2022-08-09T08:19:36.355Z,24.91
2022-08-09T08:20:36.374Z,25.09
2022-08-09T08:21:39.426Z,25.24
2022-08-09T08:22:36.638Z,25.32
2022-08-09T08:23:36.557Z,25.46
2022-08-09T08:24:40.799Z,25.52
2022-08-09T08:25:40.049Z,25.65
2022-08-09T08:26:54.901Z,25.76
2022-08-09T08:27:40.747Z,25.90
2022-08-09T08:28:36.224Z,26.05
2022-08-09T08:29:39.153Z,26.02
2022-08-09T08:30:37.225Z,26.01
2022-08-09T08:32:02.524Z,25.99
2022-08-09T08:32:37.364Z,25.94
2022-08-09T08:33:40.661Z,25.98
2022-08-09T08:34:37.225Z,25.95
2022-08-09T08:35:59.482Z,26.05
2022-08-09T08:36:40.145Z,26.15
2022-08-09T08:37:41.341Z,26.12
2022-08-09T08:38:37.086Z,26.20
2022-08-09T08:39:40.011Z,26.30
2022-08-09T08:40:37.106Z,26.47
2022-08-09T08:41:42.007Z,26.52
2022-08-09T08:42:37.050Z,26.57
2022-08-09T08:43:36.120Z,26.65
2022-08-09T08:44:36.125Z,26.65
2022-08-09T08:45:37.542Z,26.66
2022-08-09T08:46:59.381Z,26.69
2022-08-09T08:47:38.583Z,26.76
2022-08-09T08:48:36.978Z,26.80
2022-08-09T08:49:47.328Z,26.88
2022-08-09T08:50:36.952Z,26.85
2022-08-09T08:51:41.654Z,26.77
2022-08-09T08:52:59.730Z,26.62
2022-08-09T08:53:37.527Z,26.51
2022-08-09T08:54:36.889Z,26.55
2022-08-09T08:55:35.957Z,26.75
2022-08-09T08:56:35.868Z,26.85
2022-08-09T08:57:37.651Z,26.94
2022-08-09T08:58:35.840Z,27.02
2022-08-09T08:59:44.608Z,26.94
2022-08-09T09:00:36.845Z,26.85
2022-08-09T09:01:51.970Z,26.88
2022-08-09T09:02:37.087Z,26.87
2022-08-09T09:03:37.680Z,26.89
2022-08-09T09:04:47.912Z,26.88
2022-08-09T09:05:59.617Z,26.89
2022-08-09T09:06:36.748Z,27.02
2022-08-09T09:07:36.725Z,27.09
2022-08-09T09:08:40.619Z,27.09
2022-08-09T09:09:50.235Z,27.14
2022-08-09T09:10:36.692Z,27.09
2022-08-09T09:11:38.574Z,26.99
2022-08-09T09:12:36.026Z,27.04
2022-08-09T09:13:55.587Z,27.18
2022-08-09T09:14:36.632Z,27.29
2022-08-09T09:15:35.674Z,27.47
2022-08-09T09:16:35.923Z,27.54
2022-08-09T09:17:49.562Z,27.60
2022-08-09T09:18:36.570Z,27.63
2022-08-09T09:19:41.457Z,27.59
2022-08-09T09:20:36.572Z,27.47
2022-08-09T09:21:43.104Z,27.46
2022-08-09T09:22:36.663Z,27.55
2022-08-09T09:23:37.984Z,27.69
2022-08-09T09:24:38.004Z,27.82
2022-08-09T09:26:04.994Z,27.87
2022-08-09T09:26:36.473Z,27.92
2022-08-09T09:28:05.211Z,27.99
2022-08-09T09:29:02.013Z,27.97
2022-08-09T09:30:09.340Z,28.00
2022-08-09T09:30:40.995Z,28.00
2022-08-09T09:32:06.722Z,28.02
2022-08-09T09:32:36.784Z,27.96
2022-08-09T09:33:44.670Z,27.93
2022-08-09T09:34:36.369Z,27.94
2022-08-09T09:35:35.355Z,28.00
2022-08-09T09:36:35.347Z,28.12
2022-08-09T09:37:35.324Z,28.17
2022-08-09T09:38:37.066Z,28.18
2022-08-09T09:39:54.949Z,28.19
2022-08-09T09:40:36.376Z,28.19
2022-08-09T09:41:49.136Z,28.06
2022-08-09T09:42:36.258Z,28.18
2022-08-09T09:43:41.228Z,28.24
2022-08-09T09:44:36.949Z,28.18
2022-08-09T09:45:57.002Z,28.18
2022-08-09T09:46:42.217Z,28.24
2022-08-09T09:47:47.721Z,28.33
2022-08-09T09:48:36.187Z,28.22
2022-08-09T09:50:13.480Z,28.22
2022-08-09T09:50:36.216Z,28.00
2022-08-09T09:51:38.593Z,28.02
2022-08-09T09:52:37.008Z,28.19
2022-08-09T09:53:57.367Z,28.36
2022-08-09T09:54:36.132Z,28.54
2022-08-09T09:55:35.164Z,28.54
2022-08-09T09:56:35.457Z,28.46
2022-08-09T09:58:02.644Z,28.46
2022-08-09T09:58:37.349Z,28.33
2022-08-09T09:59:35.549Z,28.31
2022-08-09T10:00:35.243Z,28.17
2022-08-09T10:01:38.070Z,28.11
2022-08-09T10:02:36.010Z,28.11
2022-08-09T10:03:35.062Z,28.14
2022-08-09T10:04:35.038Z,28.18
2022-08-09T10:06:00.782Z,28.17
2022-08-09T10:06:35.952Z,28.09
2022-08-09T10:07:35.063Z,27.97
2022-08-09T10:08:43.219Z,27.90
2022-08-09T10:09:35.943Z,27.85
2022-08-09T10:10:34.929Z,27.90
2022-08-09T10:12:01.376Z,27.84
2022-08-09T10:12:35.914Z,28.00
2022-08-09T10:13:43.374Z,28.17
2022-08-09T10:14:35.851Z,28.43
2022-08-09T10:16:09.034Z,28.56
2022-08-09T10:16:57.285Z,28.85
2022-08-09T10:17:50.197Z,29.08
2022-08-09T10:18:35.813Z,29.26
2022-08-09T10:19:34.850Z,29.27
2022-08-09T10:20:44.544Z,29.19
2022-08-09T10:21:35.771Z,29.14
2022-08-09T10:22:34.859Z,29.09
2022-08-09T10:23:34.731Z,29.00
2022-08-09T10:24:36.126Z,28.96
2022-08-09T10:26:06.184Z,28.95
2022-08-09T10:26:35.703Z,29.05
2022-08-09T10:27:38.919Z,29.05
2022-08-09T10:28:35.674Z,29.08
2022-08-09T10:30:37.041Z,28.81
2022-08-09T10:32:42.817Z,28.43
2022-08-09T10:34:11.258Z,28.40
2022-08-09T10:34:36.065Z,28.39
2022-08-09T10:35:34.594Z,28.46
2022-08-09T10:36:35.405Z,28.51
2022-08-09T10:37:38.962Z,28.54
2022-08-09T10:38:56.800Z,28.54
2022-08-09T10:39:35.746Z,28.39
2022-08-09T10:40:40.537Z,28.21
2022-08-09T10:41:35.591Z,28.04
2022-08-09T10:42:34.700Z,27.85
2022-08-09T10:43:36.103Z,27.78
2022-08-09T10:44:35.466Z,27.84
2022-08-09T10:45:35.707Z,28.11
2022-08-09T10:46:43.554Z,28.29
2022-08-09T10:48:19.402Z,28.39
2022-08-09T10:48:36.881Z,28.52
2022-08-09T10:49:50.803Z,28.68
2022-08-09T10:50:35.387Z,28.83
2022-08-09T10:51:40.826Z,28.95
2022-08-09T10:52:35.744Z,29.16
2022-08-09T10:53:38.095Z,29.41
2022-08-09T10:54:35.327Z,29.41
2022-08-09T10:55:55.476Z,29.41
2022-08-09T10:56:35.329Z,29.57
2022-08-09T10:57:34.669Z,29.73
2022-08-09T10:58:35.024Z,29.71
2022-08-09T10:59:55.579Z,29.73
2022-08-09T11:00:35.450Z,29.71
2022-08-09T11:03:14.278Z,29.79
2022-08-09T11:03:14.571Z,29.74
2022-08-09T11:03:49.642Z,29.82
2022-08-09T11:04:35.392Z,29.90
2022-08-09T11:05:34.236Z,30.00
2022-08-09T11:06:34.198Z,29.92
2022-08-09T11:07:57.810Z,30.00
2022-08-09T11:08:35.167Z,29.83
2022-08-09T11:09:37.259Z,29.90
2022-08-09T11:10:34.138Z,29.86
2022-08-09T11:11:34.141Z,29.89
2022-08-09T11:12:35.501Z,30.13
2022-08-09T11:13:50.826Z,30.35
2022-08-09T11:14:35.087Z,30.53
2022-08-09T11:15:38.498Z,30.46
2022-08-09T11:16:36.246Z,30.35
2022-08-09T11:17:34.047Z,30.17
2022-08-09T11:18:35.033Z,30.32
2022-08-09T11:20:11.889Z,30.39
2022-08-09T11:20:35.011Z,30.62
2022-08-09T11:21:34.002Z,30.79
2022-08-09T11:22:35.039Z,30.91
2022-08-09T11:23:33.951Z,30.89
2022-08-09T11:24:33.961Z,30.91
2022-08-09T11:25:45.279Z,30.70
2022-08-09T11:26:34.954Z,30.46
2022-08-09T11:28:05.223Z,30.23
2022-08-09T11:28:35.168Z,30.20
2022-08-09T11:30:05.853Z,29.92
2022-08-09T11:30:36.041Z,29.49
2022-08-09T11:31:36.811Z,29.48
2022-08-09T11:32:34.145Z,29.43
2022-08-09T11:33:33.853Z,29.39
2022-08-09T11:34:33.825Z,29.41
2022-08-09T11:35:34.900Z,29.18
2022-08-09T11:36:35.953Z,29.24
2022-08-09T11:37:40.875Z,28.95
2022-08-09T11:38:35.096Z,28.52
2022-08-09T11:39:38.056Z,28.06
2022-08-09T11:40:33.906Z,28.12
2022-08-09T11:41:38.119Z,28.11
2022-08-09T11:42:34.089Z,28.12
2022-08-09T11:43:33.706Z,28.24
2022-08-09T11:44:33.716Z,28.49
2022-08-09T11:45:42.150Z,28.51
2022-08-09T11:46:34.729Z,28.52
2022-08-09T11:47:33.655Z,28.40
2022-08-09T11:48:35.996Z,28.09
2022-08-09T11:49:42.819Z,27.88
2022-08-09T11:50:54.037Z,27.77
2022-08-09T11:53:00.786Z,27.70
2022-08-09T11:53:03.027Z,27.92
2022-08-09T11:53:58.774Z,28.14
2022-08-09T11:54:34.561Z,28.41
2022-08-09T11:55:39.880Z,28.61
2022-08-09T11:56:47.873Z,28.81
2022-08-09T11:57:47.991Z,29.09
2022-08-09T11:58:34.507Z,29.36
2022-08-09T11:59:34.119Z,29.61
2022-08-09T12:00:33.494Z,29.90
2022-08-09T12:02:15.926Z,30.35
2022-08-09T12:02:39.646Z,30.38
2022-08-09T12:03:57.414Z,30.26
2022-08-09T12:04:37.359Z,30.29
2022-08-09T12:05:38.002Z,30.46
2022-08-09T12:06:35.252Z,30.60
2022-08-09T12:07:41.446Z,30.62
2022-08-09T12:08:34.391Z,30.72
2022-08-09T12:09:33.862Z,30.76
2022-08-09T12:10:40.098Z,30.77
2022-08-09T12:11:37.884Z,30.80
2022-08-09T12:12:34.329Z,30.75
2022-08-09T12:14:08.967Z,30.43
2022-08-09T12:14:40.618Z,30.04
2022-08-09T12:15:49.987Z,29.60
2022-08-09T12:16:38.438Z,29.05
2022-08-09T12:17:44.504Z,28.73
2022-08-09T12:18:34.273Z,28.66
2022-08-09T12:19:33.230Z,28.90
2022-08-09T12:20:33.222Z,29.11
2022-08-09T12:21:38.612Z,29.37
2022-08-09T12:22:34.516Z,29.80
2022-08-09T12:23:58.799Z,30.04
2022-08-09T12:24:34.186Z,30.27
2022-08-09T12:25:37.025Z,30.47
2022-08-09T12:26:34.192Z,30.73
2022-08-09T12:28:58.300Z,30.89
2022-08-09T12:28:59.794Z,30.98
2022-08-09T12:29:51.290Z,31.01
2022-08-09T12:30:38.165Z,30.99
2022-08-09T12:31:59.163Z,30.84
2022-08-09T12:32:34.240Z,30.73
2022-08-09T12:33:50.905Z,30.15
2022-08-09T12:34:34.101Z,29.33
2022-08-09T12:35:37.791Z,28.85
2022-08-09T12:36:36.113Z,28.80
2022-08-09T12:37:33.012Z,28.89
2022-08-09T12:38:38.560Z,29.19
2022-08-09T12:39:34.049Z,29.53
2022-08-09T12:40:32.982Z,29.98
2022-08-09T12:41:39.146Z,30.26
2022-08-09T12:42:34.216Z,30.55
2022-08-09T12:44:05.783Z,30.83
2022-08-09T12:44:37.459Z,30.97
2022-08-09T12:45:38.595Z,30.82
2022-08-09T12:46:33.933Z,30.82
2022-08-09T12:47:40.682Z,31.14
2022-08-09T12:48:38.407Z,31.36
2022-08-09T12:49:32.856Z,31.53
2022-08-09T12:50:32.845Z,31.48
2022-08-09T12:52:00.132Z,31.29
2022-08-09T12:52:42.930Z,31.10
2022-08-09T12:53:37.147Z,30.75
2022-08-09T12:54:32.802Z,30.38
2022-08-09T12:56:11.388Z,29.97